Aérodrome :
LOGIN :

S'inscrire | Disclaimer

   EN    FR    IT 

 










Légende :    VFR   VFR Marginal   IFR   IFR Intensif   IFR Très Intensif
Visi : 
Plafond : 
>= 8 km
>= 3000ft
5 à 8 km
1000 à 3000 ft
1500m à 5 km
500 à 1000 ft
800 à 1500m
200 à 500 ft
< 800m
< 200 ft
Symboles :   Orages  Brouillard  Fortes neiges  Fortes précipitations  Vent > 20 kt
SIGMETs :   Divers  Orages  Givrage  Turbulence  Onde Orograph.  Cendres Volcan.






- Altitude de l'aérodrome : 1345 ft
- Code IATA : FRZ


ETHF - Fritzlar

DERNIER METAR :
  • 232049Z 08004KT 9999 BKN007 13/12 Q1012 GRN

METARs EXPIRÉS :
  • 232020Z 09005KT 9999 SCT007 BKN012 12/11 Q1012 GRN
  • 231920Z 09005KT 9999 BKN013 13/11 Q1012 GRN
  • 231820Z VRB01KT 9999 BKN013 13/12 Q1013 GRN

TAF TAF ETHF
Valide du 23 à 14h jusqu'au 23 à 23h UTC


231324Z 2314/2323 VRB03KT 8000 NSW OVC010
TEMPO 2321/2323 VRB02KT 2000 BR OVC006 CANCEL 1400



MET'MAP, la Météo Aéronautique d'un coup d'oeil ! - Copyright ORBIFLY Décembre 2007 - Disclaimer

ORBIFLY MET'MAP TEAM :

Programmation & Développement : Alexandra Zaïnal
Conception & Développement : Baudouin d'Aumeries
Co-Programmation & Développement : Marc-Olivier Méhu
Soutien technique & logistique : Manuel Goepfert

Contact : metmap@orbifly.com




SOURCES & CREDITS :

   NOAA